createdAt,value
2017-09-19T00:01:40.112Z,89.80
2017-09-19T00:04:41.663Z,89.20
2017-09-19T00:07:43.210Z,89.10
2017-09-19T00:10:45.415Z,87.80
2017-09-19T00:13:48.461Z,87.30
2017-09-19T00:16:50.099Z,88.40
2017-09-19T00:19:56.968Z,88.00
2017-09-19T00:22:58.631Z,89.30
2017-09-19T00:26:00.206Z,88.70
2017-09-19T00:29:01.776Z,88.50
2017-09-19T00:32:03.325Z,88.30
2017-09-19T00:35:05.903Z,88.60
2017-09-19T00:38:07.479Z,89.70
2017-09-19T04:07:28.061Z,89.90
2017-09-19T04:10:31.558Z,89.90
2017-09-19T04:13:33.278Z,90.30
2017-09-19T04:16:37.669Z,89.80
2017-09-19T04:19:39.976Z,89.90
2017-09-19T04:22:42.248Z,89.50
2017-09-19T04:25:44.001Z,88.10
2017-09-19T04:28:47.524Z,88.60
2017-09-19T04:31:51.206Z,88.90
2017-09-19T04:34:52.845Z,88.10
2017-09-19T04:37:57.816Z,89.00
2017-09-19T04:40:59.479Z,89.40
2017-09-19T04:44:01.776Z,88.40
2017-09-19T04:47:04.245Z,89.90
2017-09-19T04:50:08.832Z,89.90
2017-09-19T04:53:10.515Z,88.30
2017-09-19T04:56:14.987Z,89.20
2017-09-19T04:59:18.040Z,88.50
2017-09-19T05:02:19.786Z,90.30
2017-09-19T05:05:21.567Z,88.90
2017-09-19T05:08:23.902Z,89.70
2017-09-19T05:11:25.581Z,89.10
2017-09-19T05:14:27.294Z,89.90
2017-09-19T05:17:29.621Z,88.80
2017-09-19T05:20:32.122Z,88.60
2017-09-19T05:23:34.473Z,90.00
2017-09-19T05:26:37.827Z,90.20
2017-09-19T05:29:39.424Z,88.70
2017-09-19T05:32:41.097Z,88.80
2017-09-19T05:35:43.511Z,89.80
2017-09-19T05:38:46.663Z,90.00
2017-09-19T05:41:49.191Z,89.90
2017-09-19T05:44:51.885Z,89.20
2017-09-19T05:47:53.787Z,89.20
2017-09-19T05:51:04.714Z,90.30
2017-09-19T05:54:06.272Z,90.00
2017-09-19T05:57:07.910Z,89.80
2017-09-19T06:00:13.480Z,89.60
2017-09-19T06:03:15.156Z,88.60
2017-09-19T06:06:17.762Z,88.60
2017-09-19T06:09:39.552Z,89.80
2017-09-19T06:12:42.590Z,90.00
2017-09-19T06:18:52.627Z,88.00
2017-09-19T06:21:54.271Z,89.10
2017-09-19T06:24:55.906Z,87.70
2017-09-19T06:27:58.131Z,88.40
2017-09-19T06:31:00.852Z,90.00
2017-09-19T06:34:04.085Z,90.40
2017-09-19T06:37:05.749Z,89.40
2017-09-19T06:40:07.800Z,90.40
2017-09-19T06:43:10.297Z,90.00
2017-09-19T06:46:12.661Z,89.30
2017-09-19T06:49:16.613Z,89.20
2017-09-19T06:52:19.885Z,89.10
2017-09-19T06:55:23.075Z,89.50
2017-09-19T06:58:26.269Z,89.10
2017-09-19T07:01:28.035Z,90.10
2017-09-19T07:04:30.372Z,89.20
2017-09-19T07:07:32.770Z,89.90
2017-09-19T07:10:37.214Z,88.90
2017-09-19T07:13:38.862Z,90.20
2017-09-19T07:16:40.389Z,90.20
2017-09-19T07:19:41.886Z,89.30
2017-09-19T07:22:44.974Z,90.10
2017-09-19T07:25:47.449Z,88.40
2017-09-19T07:31:57.719Z,87.00
2017-09-19T07:34:59.190Z,89.80
2017-09-19T07:38:00.780Z,89.60
2017-09-19T07:41:02.526Z,90.00
2017-09-19T07:44:12.104Z,90.20
2017-09-19T07:47:28.602Z,90.90
2017-09-19T07:50:56.591Z,90.60
2017-09-19T07:54:08.070Z,90.00
2017-09-19T07:57:21.665Z,88.30
2017-09-19T08:26:39.075Z,88.80
2017-09-19T08:29:43.825Z,87.30
2017-09-19T08:32:48.942Z,89.70
2017-09-19T08:35:53.082Z,89.10
2017-09-19T08:38:56.501Z,88.20
2017-09-19T08:42:01.627Z,89.00
2017-09-19T08:45:14.071Z,89.10
2017-09-19T08:48:19.378Z,88.40
2017-09-19T08:51:22.259Z,86.40
2017-09-19T08:54:28.247Z,87.10
2017-09-19T08:57:30.071Z,89.10
2017-09-19T09:00:32.735Z,88.60
2017-09-19T09:03:41.032Z,85.40
2017-09-19T09:13:00.140Z,89.40
2017-09-19T09:16:03.288Z,89.40
2017-09-19T09:19:06.043Z,87.60
2017-09-19T09:22:12.469Z,89.10
2017-09-19T09:25:14.962Z,86.70
2017-09-19T09:28:16.661Z,84.80
2017-09-19T09:31:19.272Z,85.90
2017-09-19T09:34:20.999Z,85.60
2017-09-19T09:37:23.287Z,84.70
2017-09-19T09:40:26.089Z,84.20
2017-09-19T09:43:27.733Z,85.10
2017-09-19T09:46:29.564Z,84.50
2017-09-19T09:49:31.092Z,85.50
2017-09-19T09:52:32.620Z,84.70
2017-09-19T09:55:34.211Z,83.60
2017-09-19T09:58:36.556Z,84.10
2017-09-19T10:01:38.145Z,82.50
2017-09-19T10:04:39.752Z,83.10
2017-09-19T10:07:41.338Z,83.50
2017-09-19T10:10:42.886Z,83.80
2017-09-19T10:13:44.604Z,86.10
2017-09-19T10:19:55.305Z,85.40
2017-09-19T10:22:56.932Z,87.20
2017-09-19T10:25:58.651Z,88.30
2017-09-19T10:29:01.211Z,86.50
2017-09-19T10:32:04.410Z,88.30
2017-09-19T10:35:06.103Z,89.40
2017-09-19T10:38:08.615Z,88.50
2017-09-19T10:41:10.332Z,87.50
2017-09-19T10:44:17.145Z,88.30
2017-09-19T10:47:19.455Z,88.40
2017-09-19T10:50:21.889Z,87.30
2017-09-19T10:53:23.679Z,85.20
2017-09-19T10:56:25.722Z,85.20
2017-09-19T10:59:27.317Z,84.30
2017-09-19T11:02:29.005Z,87.10
2017-09-19T11:05:30.534Z,83.50
2017-09-19T11:08:32.258Z,82.50
2017-09-19T11:11:33.873Z,81.30
2017-09-19T11:14:35.463Z,81.10
2017-09-19T11:20:46.116Z,79.90
2017-09-19T11:23:47.865Z,82.30
2017-09-19T11:26:50.144Z,82.30
2017-09-19T11:29:51.846Z,82.40
2017-09-19T11:32:53.441Z,84.40
2017-09-19T11:35:56.737Z,84.20
2017-09-19T11:38:58.435Z,84.90
2017-09-19T11:42:00.775Z,84.60
2017-09-19T11:45:02.877Z,84.90
2017-09-19T11:48:04.518Z,82.60
2017-09-19T11:51:06.206Z,80.30
2017-09-19T11:54:08.485Z,85.80
2017-09-19T11:57:10.082Z,84.20
2017-09-19T12:00:11.775Z,84.20
2017-09-19T12:03:14.203Z,86.40
2017-09-19T12:06:15.949Z,85.90
2017-09-19T12:09:17.557Z,84.20
2017-09-19T12:12:19.189Z,85.10
2017-09-19T12:15:20.766Z,84.80
2017-09-19T12:18:23.096Z,84.70
2017-09-19T12:21:24.782Z,85.80
2017-09-19T12:24:26.561Z,86.90
2017-09-19T12:27:29.572Z,82.90
2017-09-19T13:21:02.191Z,80.30
2017-09-19T13:24:10.320Z,79.80
2017-09-19T13:27:12.997Z,82.50
2017-09-19T13:30:16.651Z,82.20
2017-09-19T13:33:39.683Z,82.00
2017-09-19T13:36:46.415Z,83.00
2017-09-19T13:39:48.756Z,81.20
2017-09-19T13:42:51.446Z,80.60
2017-09-19T13:45:55.469Z,79.30
2017-09-19T13:48:57.841Z,78.10
2017-09-19T13:51:59.469Z,77.60
2017-09-19T13:55:01.025Z,77.40
2017-09-19T13:58:02.580Z,73.90
2017-09-19T14:01:04.379Z,73.20
2017-09-19T14:04:06.968Z,70.70
2017-09-19T14:07:08.618Z,68.70
2017-09-19T14:10:10.945Z,71.60
2017-09-19T14:13:12.505Z,70.80
2017-09-19T14:16:14.440Z,70.40
2017-09-19T14:19:21.155Z,69.20
2017-09-19T14:22:22.792Z,68.90
2017-09-19T14:25:24.365Z,67.60
2017-09-19T14:28:25.890Z,68.00
2017-09-19T14:31:27.437Z,69.20
2017-09-19T14:34:28.957Z,68.80
2017-09-19T14:37:31.232Z,70.70
2017-09-19T14:40:32.822Z,70.60
2017-09-19T14:43:34.507Z,69.00
2017-09-19T14:46:36.022Z,71.30
2017-09-19T14:49:37.561Z,69.80
2017-09-19T14:52:39.116Z,68.70
2017-09-19T14:55:41.413Z,71.00
2017-09-19T14:58:43.065Z,69.90
2017-09-19T15:01:44.544Z,69.80
2017-09-19T15:04:46.473Z,67.60
2017-09-19T15:07:48.693Z,72.20
2017-09-19T15:10:50.176Z,71.90
2017-09-19T15:13:52.401Z,70.90
2017-09-19T15:16:53.934Z,70.10
2017-09-19T15:19:55.470Z,70.00
2017-09-19T15:22:58.214Z,70.70
2017-09-19T15:25:59.634Z,70.10
2017-09-19T15:29:01.847Z,69.00
2017-09-19T15:32:03.451Z,68.40
2017-09-19T15:35:05.023Z,68.80
2017-09-19T15:38:08.730Z,72.10
2017-09-19T15:41:10.248Z,73.00
2017-09-19T15:44:12.048Z,73.90
2017-09-19T15:47:13.650Z,74.80
2017-09-19T15:50:15.820Z,75.70
2017-09-19T15:53:18.136Z,75.30
2017-09-19T15:56:19.623Z,73.90
2017-09-19T15:59:21.912Z,73.10
2017-09-19T16:02:23.352Z,77.50
2017-09-19T16:05:24.882Z,74.80
2017-09-19T16:08:27.302Z,76.80
2017-09-19T16:11:29.529Z,76.80
2017-09-19T16:14:31.086Z,76.30
2017-09-19T16:17:32.708Z,76.10
2017-09-19T16:20:34.274Z,76.10
2017-09-19T16:23:35.978Z,75.90
2017-09-19T16:26:37.635Z,76.40
2017-09-19T16:29:39.966Z,78.00
2017-09-19T16:32:41.565Z,76.80
2017-09-19T16:35:43.909Z,76.40
2017-09-19T16:38:45.528Z,76.80
2017-09-19T16:41:48.354Z,74.40
2017-09-19T16:44:50.065Z,72.70
2017-09-19T16:47:56.237Z,72.70
2017-09-19T16:51:00.296Z,76.90
2017-09-19T16:54:02.823Z,76.40
2017-09-19T16:57:04.349Z,77.20
2017-09-19T17:00:05.965Z,75.60
2017-09-19T17:03:08.687Z,78.60
2017-09-19T17:06:10.240Z,78.10
2017-09-19T17:09:11.914Z,79.00
2017-09-19T17:12:13.774Z,78.10
2017-09-19T17:15:15.342Z,79.10
2017-09-19T17:18:16.938Z,78.10
2017-09-19T17:21:18.992Z,78.80
2017-09-19T17:24:20.579Z,79.70
2017-09-19T17:27:27.222Z,79.30
2017-09-19T17:30:37.858Z,79.40
2017-09-19T17:33:41.033Z,80.90
2017-09-19T17:36:42.861Z,80.70
2017-09-19T17:46:41.586Z,79.50
2017-09-19T17:49:43.563Z,78.80
2017-09-19T17:52:50.401Z,79.50
2017-09-19T17:59:02.137Z,79.50
2017-09-19T18:02:06.850Z,79.30
2017-09-19T18:05:11.606Z,80.60
2017-09-19T18:08:16.911Z,78.90
2017-09-19T18:11:18.460Z,78.30
2017-09-19T18:14:20.075Z,79.70
2017-09-19T18:17:22.646Z,78.70
2017-09-19T18:20:24.142Z,80.30
2017-09-19T18:23:25.765Z,78.20
2017-09-19T18:26:28.035Z,79.40
2017-09-19T18:29:53.688Z,78.90
2017-09-19T19:44:48.824Z,79.80
2017-09-19T19:47:50.376Z,78.60
2017-09-19T19:50:53.012Z,80.90
2017-09-19T19:54:11.478Z,80.50
2017-09-19T19:57:30.924Z,80.50
2017-09-19T20:00:35.526Z,80.70
2017-09-19T20:03:46.727Z,80.10
2017-09-19T20:07:01.586Z,82.00
2017-09-19T20:10:11.303Z,80.70
2017-09-19T20:13:13.839Z,80.90
2017-09-19T20:16:18.307Z,79.50
2017-09-19T20:19:20.528Z,80.50
2017-09-19T20:22:24.664Z,80.50
2017-09-19T20:25:27.169Z,80.70
2017-09-19T20:28:29.905Z,81.30
2017-09-19T20:31:38.709Z,81.60
2017-09-19T20:45:11.584Z,82.10
2017-09-19T21:13:35.965Z,80.90
2017-09-19T21:16:43.615Z,80.40
2017-09-19T21:19:45.776Z,81.20
2017-09-19T21:22:48.157Z,80.80
2017-09-19T21:29:31.100Z,80.80
2017-09-19T21:33:17.590Z,80.60
